Anthem, Arizona
Current Conditions -  °F | °C
As of 1:53 AM on Thursday 23 Oct 2014 (Local Time) from KDVT Reporting Station
Clear Clear  
Wind Chill: 22°   Ceiling: Unl
Heat Index: 22°   Visibility: 10mi
Dew Point:   Wind: 6mph
Humidity: 41%   Direction: 30°NNE
Pressure: 29.98"   Gusts: NA
Location:  33.8348°N, 112.071°W
Report Text: KDVT 230853Z AUTO 03005KT 10SM CLR 22/08 A2998 RMK AO2 SLP128 T02220083 53004
Loading
Personal Weather Stations






























Interactive Weather Map
Tropical Storm Tracking
New forecast layout! Learn more

10-Day Weather Forecast

Advertisements
Track Severe Weather on mobile